createdAt,value
2022-12-22T00:01:49.759Z,0.59
2022-12-22T00:05:10.818Z,0.68
2022-12-22T00:08:31.980Z,0.66
2022-12-22T00:11:53.043Z,0.86
2022-12-22T00:15:13.990Z,0.79
2022-12-22T00:18:35.860Z,0.85
2022-12-22T00:21:56.572Z,0.92
2022-12-22T00:25:17.489Z,0.93
2022-12-22T00:28:38.437Z,1.00
2022-12-22T00:32:00.455Z,0.98
2022-12-22T00:35:21.461Z,0.86
2022-12-22T00:38:42.533Z,0.81
2022-12-22T00:42:03.476Z,0.85
2022-12-22T00:45:25.012Z,0.81
2022-12-22T00:48:45.679Z,0.92
2022-12-22T00:52:06.915Z,0.69
2022-12-22T00:55:32.676Z,0.78
2022-12-22T00:58:53.987Z,0.75
2022-12-22T01:02:15.100Z,0.86
2022-12-22T01:05:36.527Z,0.92
2022-12-22T01:08:58.093Z,0.85
2022-12-22T01:12:19.737Z,0.94
2022-12-22T01:15:41.018Z,0.98
2022-12-22T01:19:02.099Z,0.92
2022-12-22T01:22:28.615Z,0.91
2022-12-22T01:25:49.661Z,0.96
2022-12-22T01:29:10.744Z,0.95
2022-12-22T01:32:33.019Z,0.87
2022-12-22T01:35:54.141Z,0.88
2022-12-22T01:39:15.078Z,0.89
2022-12-22T01:42:36.441Z,0.85
2022-12-22T01:45:57.594Z,0.85
2022-12-22T01:49:18.804Z,0.86
2022-12-22T01:52:43.057Z,0.88
2022-12-22T01:56:04.120Z,0.76
2022-12-22T01:59:25.088Z,0.83
2022-12-22T02:02:48.569Z,0.76
2022-12-22T02:06:38.863Z,0.84
2022-12-22T02:10:13.469Z,0.85
2022-12-22T02:14:03.104Z,0.77
2022-12-22T02:17:53.057Z,0.85
2022-12-22T02:21:22.757Z,0.80
2022-12-22T02:24:51.798Z,0.83
2022-12-22T02:28:14.013Z,0.88
2022-12-22T02:31:35.006Z,0.94
2022-12-22T02:34:56.185Z,0.95
2022-12-22T02:38:26.265Z,0.97
2022-12-22T02:41:52.934Z,0.97
2022-12-22T02:45:26.296Z,0.98
2022-12-22T02:49:09.101Z,0.99
2022-12-22T02:52:46.102Z,0.95
2022-12-22T02:56:06.978Z,0.90
2022-12-22T02:59:28.130Z,0.86
2022-12-22T03:02:49.190Z,0.88
2022-12-22T03:06:09.991Z,0.94
2022-12-22T03:09:31.127Z,0.82
2022-12-22T03:12:52.273Z,1.02
2022-12-22T03:16:13.706Z,0.85
2022-12-22T03:19:34.501Z,0.91
2022-12-22T03:22:55.316Z,1.10
2022-12-22T03:25:57.898Z,1.06
2022-12-22T03:29:00.377Z,1.22
2022-12-22T03:32:02.992Z,1.23
2022-12-22T03:35:05.848Z,1.33
2022-12-22T03:38:08.350Z,1.37
2022-12-22T03:41:30.783Z,1.35
2022-12-22T03:44:51.942Z,1.37
2022-12-22T03:47:54.437Z,1.40
2022-12-22T03:50:57.267Z,1.43
2022-12-22T03:53:59.974Z,1.47
2022-12-22T03:57:02.419Z,1.42
2022-12-22T04:00:05.883Z,1.33
2022-12-22T04:03:14.817Z,1.31
2022-12-22T04:06:18.103Z,1.31
2022-12-22T04:09:22.521Z,1.13
2022-12-22T04:12:43.697Z,1.00
2022-12-22T04:15:46.203Z,0.99
2022-12-22T04:18:48.773Z,1.05
2022-12-22T04:21:51.289Z,0.93
2022-12-22T04:24:53.732Z,0.93
2022-12-22T04:27:56.180Z,0.92
2022-12-22T04:30:58.620Z,1.15
2022-12-22T04:34:01.063Z,0.94
2022-12-22T04:37:13.058Z,0.88
2022-12-22T04:40:20.793Z,0.93
2022-12-22T04:43:23.312Z,1.02
2022-12-22T04:46:25.885Z,1.04
2022-12-22T04:49:28.450Z,0.95
2022-12-22T04:52:30.892Z,0.95
2022-12-22T04:55:33.423Z,0.90
2022-12-22T04:58:36.268Z,0.92
2022-12-22T05:01:38.870Z,0.90
2022-12-22T05:04:41.308Z,0.99
2022-12-22T05:07:44.170Z,0.75
2022-12-22T05:10:46.824Z,0.94
2022-12-22T05:13:49.223Z,1.00
2022-12-22T05:16:51.899Z,1.05
2022-12-22T05:19:54.393Z,1.13
2022-12-22T05:22:57.264Z,1.14
2022-12-22T05:25:59.798Z,1.16
2022-12-22T05:29:02.167Z,1.18
2022-12-22T05:32:04.672Z,1.27
2022-12-22T05:35:08.025Z,1.37
2022-12-22T05:38:10.468Z,1.45
2022-12-22T05:41:13.376Z,1.44
2022-12-22T05:44:15.877Z,1.39
2022-12-22T05:47:18.323Z,1.51
2022-12-22T05:50:23.538Z,1.50
2022-12-22T05:53:34.338Z,1.57
2022-12-22T05:56:36.824Z,1.76
2022-12-22T05:59:39.525Z,1.55
2022-12-22T06:02:42.893Z,1.05
2022-12-22T06:05:45.480Z,1.22
2022-12-22T06:08:47.914Z,1.48
2022-12-22T06:11:50.759Z,1.54
2022-12-22T06:14:53.174Z,1.51
2022-12-22T06:17:55.576Z,1.37
2022-12-22T06:20:58.087Z,1.50
2022-12-22T06:24:00.477Z,1.41
2022-12-22T06:27:03.166Z,1.50
2022-12-22T06:30:06.353Z,1.47
2022-12-22T06:33:08.920Z,1.45
2022-12-22T06:36:11.757Z,1.53
2022-12-22T06:39:16.017Z,1.12
2022-12-22T06:42:36.994Z,1.01
2022-12-22T06:45:41.513Z,0.99
2022-12-22T06:48:43.984Z,0.92
2022-12-22T06:51:46.814Z,0.98
2022-12-22T06:54:49.232Z,0.94
2022-12-22T06:57:51.901Z,0.89
2022-12-22T07:00:56.498Z,0.89
2022-12-22T07:03:59.052Z,1.01
2022-12-22T07:07:01.587Z,1.06
2022-12-22T07:10:05.398Z,1.13
2022-12-22T07:13:19.499Z,1.25
2022-12-22T07:16:22.296Z,1.52
2022-12-22T07:19:24.909Z,1.66
2022-12-22T07:22:30.469Z,1.78
2022-12-22T07:25:33.902Z,1.76
2022-12-22T07:28:38.328Z,1.83
2022-12-22T07:31:40.791Z,1.70
2022-12-22T07:34:43.433Z,1.55
2022-12-22T07:37:48.098Z,1.63
2022-12-22T07:41:04.654Z,1.62
2022-12-22T07:44:07.938Z,1.45
2022-12-22T07:47:10.359Z,1.35
2022-12-22T07:50:25.752Z,1.28
2022-12-22T07:53:28.357Z,1.29
2022-12-22T07:56:30.819Z,1.31
2022-12-22T07:59:33.229Z,1.36
2022-12-22T08:02:39.183Z,1.41
2022-12-22T08:05:41.889Z,1.54
2022-12-22T08:08:44.867Z,1.55
2022-12-22T08:11:49.242Z,1.56
2022-12-22T08:14:51.906Z,1.65
2022-12-22T08:17:54.319Z,1.72
2022-12-22T08:20:58.535Z,2.19
2022-12-22T08:24:00.997Z,2.21
2022-12-22T08:27:06.476Z,2.25
2022-12-22T08:30:10.261Z,2.33
2022-12-22T08:33:17.749Z,2.48
2022-12-22T08:36:20.320Z,2.46
2022-12-22T08:39:24.023Z,2.53
2022-12-22T08:42:26.744Z,2.24
2022-12-22T08:45:29.208Z,2.39
2022-12-22T08:48:31.821Z,2.39
2022-12-22T08:51:34.350Z,2.39
2022-12-22T08:54:36.835Z,2.47
2022-12-22T08:57:39.274Z,2.25
2022-12-22T09:00:42.559Z,1.94
2022-12-22T09:03:49.466Z,1.87
2022-12-22T09:06:53.498Z,1.73
2022-12-22T09:09:57.525Z,1.61
2022-12-22T09:13:00.001Z,1.56
2022-12-22T09:16:06.788Z,1.65
2022-12-22T09:19:09.384Z,1.69
2022-12-22T09:22:11.816Z,1.54
2022-12-22T09:25:14.722Z,1.63
2022-12-22T09:28:17.552Z,1.71
2022-12-22T09:31:21.700Z,1.58
2022-12-22T09:34:27.275Z,1.95
2022-12-22T09:37:29.712Z,2.18
2022-12-22T09:40:34.783Z,2.32
2022-12-22T09:43:37.555Z,2.51
2022-12-22T09:46:40.297Z,2.46
2022-12-22T09:49:42.865Z,2.60
2022-12-22T09:52:51.770Z,2.54
2022-12-22T09:55:54.203Z,2.39
2022-12-22T09:58:57.149Z,2.52
2022-12-22T10:02:42.325Z,2.68
2022-12-22T10:06:01.866Z,2.73
2022-12-22T10:09:48.317Z,2.52
2022-12-22T10:12:45.717Z,2.66
2022-12-22T10:15:48.473Z,3.06
2022-12-22T10:19:11.966Z,3.20
2022-12-22T10:22:41.665Z,3.52
2022-12-22T10:29:28.832Z,3.53
2022-12-22T10:32:31.662Z,3.63
2022-12-22T10:35:50.913Z,3.78
2022-12-22T10:39:00.383Z,3.80
2022-12-22T10:42:13.508Z,3.60
2022-12-22T10:45:18.748Z,3.52
2022-12-22T10:48:40.128Z,3.45
2022-12-22T10:51:44.520Z,3.34
2022-12-22T10:54:47.428Z,3.28
2022-12-22T10:57:50.483Z,3.26
2022-12-22T11:01:04.465Z,3.25
2022-12-22T11:04:24.938Z,3.12
2022-12-22T11:07:29.195Z,3.26
2022-12-22T11:11:01.278Z,3.17
2022-12-22T11:14:06.978Z,3.14
2022-12-22T11:17:11.731Z,3.10
2022-12-22T11:20:20.958Z,3.23
2022-12-22T11:23:48.285Z,3.10
2022-12-22T11:27:18.077Z,3.23
2022-12-22T11:30:24.795Z,3.07
2022-12-22T11:33:45.441Z,3.16
2022-12-22T11:37:22.475Z,3.16
2022-12-22T11:40:48.407Z,3.24
2022-12-22T11:43:57.965Z,3.27
2022-12-22T11:47:05.581Z,3.33
2022-12-22T11:51:01.237Z,3.05
2022-12-22T11:54:20.261Z,3.19
2022-12-22T11:57:47.198Z,3.37
2022-12-22T12:01:15.373Z,3.41
2022-12-22T12:04:48.027Z,3.23
2022-12-22T12:07:50.429Z,3.30
2022-12-22T12:11:21.009Z,3.26
2022-12-22T12:14:43.685Z,3.24
2022-12-22T12:18:18.300Z,3.17
2022-12-22T12:21:23.461Z,3.38
2022-12-22T12:24:47.313Z,3.33
2022-12-22T12:28:01.522Z,3.29
2022-12-22T12:31:05.322Z,3.39
2022-12-22T12:34:11.026Z,3.42
2022-12-22T12:37:37.972Z,3.33
2022-12-22T12:40:53.216Z,3.46
2022-12-22T12:43:56.219Z,3.49
2022-12-22T12:47:27.571Z,3.46
2022-12-22T12:50:34.268Z,3.55
2022-12-22T12:54:15.265Z,3.57
2022-12-22T12:57:26.328Z,3.63
2022-12-22T13:00:31.121Z,3.56
2022-12-22T13:04:02.671Z,3.36
2022-12-22T13:06:57.115Z,3.33
2022-12-22T13:10:19.317Z,3.27
2022-12-22T13:13:21.765Z,3.25
2022-12-22T13:16:27.329Z,3.27
2022-12-22T13:19:30.703Z,3.23
2022-12-22T13:22:33.417Z,3.22
2022-12-22T13:25:58.909Z,3.16
2022-12-22T13:29:23.841Z,3.18
2022-12-22T13:32:30.432Z,3.08
2022-12-22T13:35:40.180Z,3.12
2022-12-22T13:38:47.259Z,3.12
2022-12-22T13:41:50.361Z,2.97
2022-12-22T13:44:53.244Z,3.12
2022-12-22T13:47:55.971Z,3.15
2022-12-22T13:51:01.654Z,3.16
2022-12-22T13:54:17.141Z,3.01
2022-12-22T13:57:21.531Z,3.16
2022-12-22T14:00:25.886Z,3.04
2022-12-22T14:03:58.316Z,2.91
2022-12-22T14:06:50.905Z,2.86
2022-12-22T14:09:56.366Z,2.73
2022-12-22T14:12:58.970Z,2.83
2022-12-22T14:16:02.906Z,2.83
2022-12-22T14:19:05.679Z,2.67
2022-12-22T14:22:11.411Z,2.71
2022-12-22T14:25:16.951Z,2.78
2022-12-22T14:28:25.205Z,2.72
2022-12-22T14:31:27.787Z,2.73
2022-12-22T14:34:32.641Z,2.60
2022-12-22T14:37:36.458Z,2.52
2022-12-22T14:40:41.861Z,2.44
2022-12-22T14:43:49.129Z,2.49
2022-12-22T14:47:16.480Z,2.52
2022-12-22T14:50:21.163Z,2.42
2022-12-22T14:53:36.722Z,2.22
2022-12-22T14:56:47.637Z,2.23
2022-12-22T15:00:22.356Z,2.32
2022-12-22T15:03:24.881Z,2.52
2022-12-22T15:06:27.725Z,2.44
2022-12-22T15:10:13.220Z,2.23
2022-12-22T15:12:58.903Z,2.30
2022-12-22T15:16:01.968Z,2.30
2022-12-22T15:19:04.939Z,2.15
2022-12-22T15:22:08.102Z,2.28
2022-12-22T15:25:19.140Z,2.31
2022-12-22T15:28:21.620Z,2.29
2022-12-22T15:31:24.166Z,2.30
2022-12-22T15:34:28.832Z,2.29
2022-12-22T15:37:31.266Z,2.25
2022-12-22T15:40:37.498Z,2.22
2022-12-22T15:43:58.352Z,2.25
2022-12-22T15:47:01.719Z,2.35
2022-12-22T15:50:04.754Z,2.19
2022-12-22T15:53:11.030Z,2.20
2022-12-22T15:56:18.228Z,2.26
2022-12-22T15:59:23.923Z,2.15
2022-12-22T16:02:26.523Z,2.01
2022-12-22T16:05:29.038Z,2.27
2022-12-22T16:08:37.733Z,2.13
2022-12-22T16:11:40.247Z,2.12
2022-12-22T16:14:50.016Z,2.20
2022-12-22T16:17:53.176Z,2.20
2022-12-22T16:20:56.251Z,2.16
2022-12-22T16:24:00.503Z,2.01
2022-12-22T16:27:03.500Z,1.96
2022-12-22T16:30:19.392Z,2.06
2022-12-22T16:33:21.898Z,1.92
2022-12-22T16:36:24.272Z,2.00
2022-12-22T16:39:26.635Z,1.93
2022-12-22T16:45:49.919Z,1.78
2022-12-22T16:48:54.584Z,1.89
2022-12-22T16:51:57.015Z,1.90
2022-12-22T16:54:59.569Z,1.81
2022-12-22T16:58:05.545Z,1.92
2022-12-22T17:01:39.456Z,2.02
2022-12-22T17:04:42.020Z,2.10
2022-12-22T17:07:44.473Z,1.89
2022-12-22T17:10:47.150Z,2.02
2022-12-22T17:13:51.027Z,1.93
2022-12-22T17:16:53.528Z,1.64
2022-12-22T17:19:55.921Z,1.86
2022-12-22T17:23:00.420Z,1.80
2022-12-22T17:26:06.549Z,1.88
2022-12-22T17:29:18.317Z,1.67
2022-12-22T17:32:21.735Z,1.82
2022-12-22T17:35:25.839Z,1.71
2022-12-22T17:38:28.996Z,1.85
2022-12-22T17:41:31.528Z,1.77
2022-12-22T17:44:33.993Z,1.99
2022-12-22T17:47:42.616Z,1.99
2022-12-22T17:50:49.976Z,1.90
2022-12-22T17:53:53.159Z,2.03
2022-12-22T17:57:01.052Z,2.15
2022-12-22T18:00:04.742Z,2.07
2022-12-22T18:03:17.735Z,1.90
2022-12-22T18:06:23.244Z,2.03
2022-12-22T18:09:26.540Z,2.07
2022-12-22T18:12:29.895Z,2.02
2022-12-22T18:15:32.406Z,2.07
2022-12-22T18:18:34.948Z,1.94
2022-12-22T18:21:37.659Z,1.82
2022-12-22T18:24:40.191Z,1.95
2022-12-22T18:27:43.128Z,1.87
2022-12-22T18:30:47.359Z,1.75
2022-12-22T18:33:50.266Z,1.99
2022-12-22T18:36:52.666Z,1.94
2022-12-22T18:39:55.144Z,1.90
2022-12-22T18:42:58.606Z,1.77
2022-12-22T18:46:01.163Z,1.70
2022-12-22T18:49:05.997Z,1.74
2022-12-22T18:52:19.506Z,1.88
2022-12-22T18:55:24.210Z,1.82
2022-12-22T18:58:27.308Z,1.69
2022-12-22T19:01:30.131Z,1.80
2022-12-22T19:04:32.956Z,1.65
2022-12-22T19:07:35.553Z,1.74
2022-12-22T19:10:41.727Z,1.71
2022-12-22T19:13:48.736Z,1.66
2022-12-22T19:16:51.324Z,1.65
2022-12-22T19:19:53.923Z,1.69
2022-12-22T19:22:56.621Z,1.63
2022-12-22T19:26:06.967Z,1.73
2022-12-22T19:29:12.725Z,1.77
2022-12-22T19:32:32.971Z,1.66
2022-12-22T19:35:35.560Z,1.71
2022-12-22T19:38:38.200Z,1.77
2022-12-22T19:41:43.541Z,1.81
2022-12-22T19:44:46.183Z,1.87
2022-12-22T19:47:49.111Z,1.86
2022-12-22T19:50:54.096Z,1.88
2022-12-22T19:53:56.728Z,1.76
2022-12-22T19:56:59.658Z,1.75
2022-12-22T20:00:02.159Z,1.74
2022-12-22T20:03:19.611Z,1.71
2022-12-22T20:06:22.349Z,1.74
2022-12-22T20:09:24.803Z,1.64
2022-12-22T20:12:37.673Z,1.78
2022-12-22T20:15:40.574Z,1.77
2022-12-22T20:18:44.191Z,1.71
2022-12-22T20:21:46.651Z,1.71
2022-12-22T20:24:50.124Z,1.70
2022-12-22T20:27:54.747Z,1.69
2022-12-22T20:31:01.637Z,1.80
2022-12-22T20:34:04.941Z,1.56
2022-12-22T20:37:14.060Z,1.59
2022-12-22T20:40:24.678Z,1.56
2022-12-22T20:43:29.022Z,1.50
2022-12-22T20:46:31.656Z,1.55
2022-12-22T20:49:34.362Z,1.59
2022-12-22T20:52:36.819Z,1.64
2022-12-22T20:55:40.287Z,1.54
2022-12-22T20:58:42.729Z,1.46
2022-12-22T21:01:46.641Z,1.49
2022-12-22T21:04:49.520Z,1.53
2022-12-22T21:07:52.060Z,1.51
2022-12-22T21:10:55.458Z,1.50
2022-12-22T21:13:58.459Z,1.45
2022-12-22T21:17:01.028Z,1.47
2022-12-22T21:20:03.784Z,1.43
2022-12-22T21:23:06.877Z,1.44
2022-12-22T21:26:31.100Z,1.55
2022-12-22T21:29:33.541Z,1.51
2022-12-22T21:32:35.944Z,1.50
2022-12-22T21:35:38.526Z,1.52
2022-12-22T21:38:41.013Z,1.44
2022-12-22T21:42:01.420Z,1.55
2022-12-22T21:45:04.628Z,1.56
2022-12-22T21:48:07.214Z,1.53
2022-12-22T21:51:11.945Z,1.49
2022-12-22T21:54:14.955Z,1.55
2022-12-22T21:57:17.371Z,1.66
2022-12-22T22:00:21.339Z,1.53
2022-12-22T22:03:23.814Z,1.55
2022-12-22T22:06:26.359Z,1.49
2022-12-22T22:09:28.822Z,1.61
2022-12-22T22:12:36.186Z,1.60
2022-12-22T22:15:38.695Z,1.33
2022-12-22T22:18:42.458Z,1.59
2022-12-22T22:21:46.117Z,1.49
2022-12-22T22:24:48.590Z,1.53
2022-12-22T22:27:51.357Z,1.54
2022-12-22T22:30:53.892Z,1.39
2022-12-22T22:33:56.766Z,1.34
2022-12-22T22:36:59.143Z,1.50
2022-12-22T22:40:01.688Z,1.55
2022-12-22T22:43:05.532Z,1.57
2022-12-22T22:46:07.940Z,1.69
2022-12-22T22:49:10.401Z,1.66
2022-12-22T22:52:12.759Z,1.76
2022-12-22T22:55:15.536Z,1.67
2022-12-22T22:58:18.048Z,1.68
2022-12-22T23:01:20.491Z,1.73
2022-12-22T23:04:23.342Z,1.66
2022-12-22T23:07:25.781Z,1.62
2022-12-22T23:10:28.479Z,1.60
2022-12-22T23:13:31.037Z,1.57
2022-12-22T23:16:38.111Z,1.64
2022-12-22T23:19:40.938Z,1.51
2022-12-22T23:22:43.687Z,1.66
2022-12-22T23:25:48.582Z,1.58
2022-12-22T23:28:51.452Z,1.54
2022-12-22T23:31:53.976Z,1.75
2022-12-22T23:34:56.453Z,1.71
2022-12-22T23:37:58.917Z,1.77
2022-12-22T23:41:03.961Z,1.88
2022-12-22T23:44:06.366Z,2.01
2022-12-22T23:47:08.941Z,1.91
2022-12-22T23:50:11.976Z,1.84
2022-12-22T23:53:16.395Z,1.69
2022-12-22T23:56:18.895Z,1.85
2022-12-22T23:59:21.364Z,1.75
